createdAt,value
2022-09-29T00:01:50.364Z,99831.53
2022-09-29T00:04:18.737Z,99824.50
2022-09-29T00:06:46.034Z,99823.94
2022-09-29T00:09:13.094Z,99826.63
2022-09-29T00:11:40.748Z,99827.69
2022-09-29T00:14:07.766Z,99825.13
2022-09-29T00:16:35.917Z,99832.31
2022-09-29T00:19:04.071Z,99825.66
2022-09-29T00:21:31.495Z,99836.06
2022-09-29T00:24:01.792Z,99826.63
2022-09-29T00:26:29.521Z,99834.94
2022-09-29T00:28:59.369Z,99820.97
2022-09-29T00:31:30.617Z,99828.56
2022-09-29T00:33:58.377Z,99821.72
2022-09-29T00:36:30.249Z,99815.50
2022-09-29T00:39:00.606Z,99813.16
2022-09-29T00:41:31.295Z,99814.00
2022-09-29T00:44:00.447Z,99811.44
2022-09-29T00:46:47.140Z,99809.97
2022-09-29T00:49:53.370Z,99805.56
2022-09-29T00:52:32.604Z,99808.03
2022-09-29T00:55:14.088Z,99809.81
2022-09-29T00:57:53.194Z,99811.66
2022-09-29T01:00:22.851Z,99819.75
2022-09-29T01:03:00.368Z,99819.91
2022-09-29T01:05:33.697Z,99818.25
2022-09-29T01:08:13.345Z,99824.47
2022-09-29T01:10:43.530Z,99822.75
2022-09-29T01:13:11.658Z,99825.53
2022-09-29T01:15:39.089Z,99821.91
2022-09-29T01:18:07.038Z,99812.28
2022-09-29T01:20:39.384Z,99810.25
2022-09-29T01:23:15.858Z,99812.50
2022-09-29T01:26:18.450Z,99801.19
2022-09-29T01:29:29.748Z,99797.63
2022-09-29T01:32:05.970Z,99795.28
2022-09-29T01:35:18.039Z,99788.41
2022-09-29T01:38:12.498Z,99802.63
2022-09-29T01:40:52.782Z,99814.94
2022-09-29T01:43:43.117Z,99816.97
2022-09-29T01:46:10.193Z,99820.81
2022-09-29T01:48:43.247Z,99814.91
2022-09-29T01:51:16.816Z,99810.72
2022-09-29T01:53:52.544Z,99820.75
2022-09-29T01:56:38.291Z,99816.69
2022-09-29T01:59:17.116Z,99816.25
2022-09-29T02:01:50.143Z,99816.41
2022-09-29T02:04:27.386Z,99811.34
2022-09-29T02:07:07.539Z,99810.72
2022-09-29T02:09:42.893Z,99814.34
2022-09-29T02:12:14.255Z,99802.91
2022-09-29T02:14:46.901Z,99811.75
2022-09-29T02:17:24.466Z,99812.16
2022-09-29T02:19:52.499Z,99813.91
2022-09-29T02:22:20.843Z,99816.44
2022-09-29T02:24:52.174Z,99818.25
2022-09-29T02:27:24.423Z,99817.19
2022-09-29T02:29:51.770Z,99821.16
2022-09-29T02:32:20.214Z,99815.81
2022-09-29T02:34:52.353Z,99823.81
2022-09-29T02:40:26.619Z,99818.16
2022-09-29T02:42:59.458Z,99819.03
2022-09-29T02:45:47.783Z,99814.75
2022-09-29T02:48:16.757Z,99814.09
2022-09-29T02:51:08.807Z,99810.00
2022-09-29T02:54:03.468Z,99809.25
2022-09-29T02:56:57.588Z,99808.91
2022-09-29T02:59:36.981Z,99815.50
2022-09-29T03:02:04.883Z,99805.31
2022-09-29T03:04:36.592Z,99812.72
2022-09-29T03:07:04.270Z,99804.34
2022-09-29T03:09:33.819Z,99820.25
2022-09-29T03:12:01.595Z,99825.88
2022-09-29T03:14:28.785Z,99820.75
2022-09-29T03:16:56.762Z,99826.47
2022-09-29T03:19:28.054Z,99816.19
2022-09-29T03:21:56.008Z,99823.44
2022-09-29T03:24:23.976Z,99817.81
2022-09-29T03:26:51.110Z,99814.53
2022-09-29T03:29:19.014Z,99829.94
2022-09-29T03:31:47.081Z,99824.22
2022-09-29T03:34:14.318Z,99825.53
2022-09-29T03:36:43.179Z,99820.31
2022-09-29T03:39:11.266Z,99819.84
2022-09-29T03:41:42.958Z,99808.63
2022-09-29T03:44:10.200Z,99816.78
2022-09-29T03:46:37.965Z,99808.25
2022-09-29T03:49:05.694Z,99809.38
2022-09-29T03:54:15.650Z,99804.59
2022-09-29T03:56:43.520Z,99804.13
2022-09-29T03:59:12.501Z,99811.16
2022-09-29T04:01:41.369Z,99818.50
2022-09-29T04:04:09.779Z,99813.44
2022-09-29T04:06:38.086Z,99820.69
2022-09-29T04:09:06.690Z,99824.09
2022-09-29T04:11:33.826Z,99818.09
2022-09-29T04:14:01.067Z,99827.63
2022-09-29T04:16:29.466Z,99825.25
2022-09-29T04:18:57.751Z,99818.88
2022-09-29T04:21:27.081Z,99823.25
2022-09-29T04:23:54.657Z,99822.19
2022-09-29T04:26:22.488Z,99825.81
2022-09-29T04:28:50.376Z,99828.38
2022-09-29T04:31:20.741Z,99811.47
2022-09-29T04:33:55.545Z,99812.13
2022-09-29T04:36:38.969Z,99815.75
2022-09-29T04:39:10.529Z,99816.78
2022-09-29T04:41:40.966Z,99811.63
2022-09-29T04:44:11.612Z,99823.66
2022-09-29T04:46:50.221Z,99830.03
2022-09-29T04:49:23.576Z,99836.69
2022-09-29T04:51:52.781Z,99823.34
2022-09-29T04:54:38.070Z,99826.41
2022-09-29T04:57:06.905Z,99826.91
2022-09-29T04:59:34.493Z,99831.66
2022-09-29T05:02:01.794Z,99842.59
2022-09-29T05:04:30.406Z,99831.47
2022-09-29T05:06:58.514Z,99832.72
2022-09-29T05:09:28.739Z,99839.47
2022-09-29T05:12:45.501Z,99842.72
2022-09-29T05:15:12.572Z,99846.91
2022-09-29T05:17:40.120Z,99845.00
2022-09-29T05:20:11.492Z,99846.28
2022-09-29T05:22:39.534Z,99841.44
2022-09-29T05:25:08.993Z,99853.31
2022-09-29T05:27:37.197Z,99852.75
2022-09-29T05:30:07.446Z,99860.13
2022-09-29T05:32:36.168Z,99852.47
2022-09-29T05:35:04.235Z,99856.06
2022-09-29T05:37:31.346Z,99853.75
2022-09-29T05:39:58.672Z,99850.66
2022-09-29T05:42:26.081Z,99853.78
2022-09-29T05:44:53.437Z,99855.06
2022-09-29T05:47:20.898Z,99859.72
2022-09-29T05:49:48.200Z,99856.84
2022-09-29T05:52:15.435Z,99851.75
2022-09-29T05:54:43.001Z,99842.56
2022-09-29T05:57:10.113Z,99844.16
2022-09-29T05:59:37.538Z,99850.78
2022-09-29T06:02:04.998Z,99849.63
2022-09-29T06:08:05.445Z,99844.41
2022-09-29T06:10:48.945Z,99848.88
2022-09-29T06:13:17.937Z,99845.69
2022-09-29T06:15:45.103Z,99842.66
2022-09-29T06:18:12.287Z,99844.16
2022-09-29T06:20:42.020Z,99849.06
2022-09-29T06:23:13.138Z,99846.94
2022-09-29T06:25:49.147Z,99834.31
2022-09-29T06:28:18.093Z,99837.72
2022-09-29T06:30:46.174Z,99845.31
2022-09-29T06:33:14.488Z,99845.06
2022-09-29T06:36:08.337Z,99841.44
2022-09-29T06:38:37.785Z,99836.84
2022-09-29T06:41:12.280Z,99847.72
2022-09-29T06:43:39.821Z,99850.06
2022-09-29T06:46:07.052Z,99850.72
2022-09-29T06:48:34.476Z,99847.72
2022-09-29T06:51:10.148Z,99851.56
2022-09-29T06:53:39.189Z,99851.97
2022-09-29T06:56:09.115Z,99850.75
2022-09-29T06:58:36.617Z,99845.94
2022-09-29T07:01:06.686Z,99846.31
2022-09-29T07:03:49.887Z,99839.25
2022-09-29T07:06:29.426Z,99847.13
2022-09-29T07:08:59.230Z,99852.59
2022-09-29T07:11:29.141Z,99845.69
2022-09-29T07:13:56.227Z,99851.41
2022-09-29T07:16:24.594Z,99851.06
2022-09-29T07:18:52.649Z,99844.63
2022-09-29T07:21:22.150Z,99843.28
2022-09-29T07:23:50.132Z,99839.94
2022-09-29T07:34:58.909Z,99855.41
2022-09-29T07:37:36.556Z,99856.44
2022-09-29T07:40:04.980Z,99866.84
2022-09-29T07:42:32.928Z,99868.91
2022-09-29T07:45:00.471Z,99863.78
2022-09-29T07:47:28.379Z,99858.63
2022-09-29T07:49:58.380Z,99855.47
2022-09-29T07:52:25.837Z,99843.31
2022-09-29T07:55:13.166Z,99851.28
2022-09-29T07:57:40.826Z,99850.00
2022-09-29T08:00:11.333Z,99847.66
2022-09-29T08:02:44.150Z,99844.44
2022-09-29T08:05:12.970Z,99833.91
2022-09-29T08:07:39.813Z,99843.31
2022-09-29T08:10:16.073Z,99836.44
2022-09-29T08:12:45.902Z,99842.41
2022-09-29T08:15:13.045Z,99844.63
2022-09-29T08:17:41.144Z,99853.50
2022-09-29T08:20:09.373Z,99859.34
2022-09-29T08:22:38.147Z,99865.91
2022-09-29T08:25:06.326Z,99868.50
2022-09-29T08:27:48.409Z,99865.06
2022-09-29T08:30:32.395Z,99851.75
2022-09-29T08:34:15.494Z,99857.66
2022-09-29T08:36:43.596Z,99850.69
2022-09-29T08:42:12.249Z,99855.28
2022-09-29T08:45:03.633Z,99853.69
2022-09-29T08:47:47.837Z,99862.16
2022-09-29T08:50:46.448Z,99855.94
2022-09-29T08:53:28.137Z,99860.19
2022-09-29T08:56:07.252Z,99864.88
2022-09-29T09:05:15.083Z,99852.59
2022-09-29T09:08:36.115Z,99850.34
2022-09-29T09:11:18.288Z,99853.66
2022-09-29T09:14:10.183Z,99855.47
2022-09-29T09:17:16.246Z,99849.16
2022-09-29T09:23:26.984Z,99840.53
2022-09-29T09:26:01.875Z,99835.75
2022-09-29T09:29:05.946Z,99849.94
2022-09-29T09:36:07.662Z,99864.94
2022-09-29T09:42:37.520Z,99868.88
2022-09-29T09:45:46.496Z,99869.88
2022-09-29T09:52:03.855Z,99874.50
2022-09-29T09:54:37.244Z,99878.09
2022-09-29T09:57:07.282Z,99865.81
2022-09-29T10:00:00.433Z,99869.41
2022-09-29T10:05:47.080Z,99857.38
2022-09-29T10:08:42.994Z,99857.41
2022-09-29T10:11:26.701Z,99851.56
2022-09-29T10:14:27.618Z,99852.84
2022-09-29T10:17:10.550Z,99851.69
2022-09-29T10:20:06.433Z,99854.75
2022-09-29T10:22:35.876Z,99850.00
2022-09-29T10:28:04.172Z,99852.41
2022-09-29T10:31:00.990Z,99852.66
2022-09-29T10:37:43.218Z,99848.28
2022-09-29T10:40:14.518Z,99853.63
2022-09-29T10:42:47.259Z,99846.34
2022-09-29T10:45:26.660Z,99852.59
2022-09-29T10:48:00.997Z,99847.56
2022-09-29T10:50:36.743Z,99847.88
2022-09-29T10:53:33.412Z,99845.66
2022-09-29T10:56:22.586Z,99846.34
2022-09-29T10:59:04.453Z,99839.44
2022-09-29T11:01:48.448Z,99829.47
2022-09-29T11:04:29.742Z,99827.28
2022-09-29T11:07:13.001Z,99817.06
2022-09-29T11:09:43.636Z,99814.03
2022-09-29T11:12:30.770Z,99819.78
2022-09-29T11:15:00.454Z,99818.41
2022-09-29T11:17:38.938Z,99814.34
2022-09-29T11:20:24.464Z,99808.63
2022-09-29T11:23:12.561Z,99810.31
2022-09-29T11:26:22.556Z,99794.53
2022-09-29T11:29:00.089Z,99788.75
2022-09-29T11:31:45.375Z,99796.03
2022-09-29T11:34:33.157Z,99794.72
2022-09-29T11:37:07.482Z,99792.81
2022-09-29T11:40:19.505Z,99788.34
2022-09-29T11:43:05.073Z,99784.19
2022-09-29T11:49:27.640Z,99788.31
2022-09-29T11:52:18.316Z,99780.19
2022-09-29T11:54:47.550Z,99793.16
2022-09-29T12:05:25.465Z,99759.03
2022-09-29T12:08:36.946Z,99757.84
2022-09-29T12:14:17.305Z,99748.78
2022-09-29T12:17:16.168Z,99745.06
2022-09-29T12:26:40.064Z,99734.00
2022-09-29T12:29:53.745Z,99733.63
2022-09-29T12:33:17.276Z,99717.09
2022-09-29T12:40:33.479Z,99715.75
2022-09-29T13:04:40.157Z,99696.56
2022-09-29T13:07:27.005Z,99691.78
2022-09-29T13:10:23.001Z,99683.81
2022-09-29T13:13:20.829Z,99685.38
2022-09-29T13:16:07.076Z,99687.34
2022-09-29T13:19:06.629Z,99689.00
2022-09-29T13:22:27.859Z,99676.06
2022-09-29T13:25:15.135Z,99685.06
2022-09-29T13:27:54.237Z,99663.38
2022-09-29T13:31:16.416Z,99670.47
2022-09-29T13:33:54.111Z,99669.25
2022-09-29T13:36:32.984Z,99679.56
2022-09-29T13:39:03.493Z,99671.88
2022-09-29T13:42:31.400Z,99677.69
2022-09-29T13:45:21.559Z,99679.25
2022-09-29T13:48:05.425Z,99674.59
2022-09-29T13:50:51.467Z,99680.22
2022-09-29T13:53:40.377Z,99676.13
2022-09-29T14:00:16.328Z,99669.56
2022-09-29T14:19:21.721Z,99678.13
2022-09-29T14:21:56.403Z,99677.78
2022-09-29T14:24:44.421Z,99681.31
2022-09-29T14:27:45.180Z,99671.69
2022-09-29T14:46:35.769Z,99690.63
2022-09-29T14:52:27.001Z,99692.78
2022-09-29T14:54:54.884Z,99689.69
2022-09-29T14:57:33.762Z,99696.09
2022-09-29T15:00:19.770Z,99703.47
2022-09-29T15:02:59.830Z,99711.78
2022-09-29T15:05:35.178Z,99712.59
2022-09-29T15:08:16.500Z,99709.53
2022-09-29T15:10:43.859Z,99709.72
2022-09-29T15:13:33.465Z,99701.75
2022-09-29T15:19:55.794Z,99708.53
2022-09-29T15:22:52.990Z,99702.97
2022-09-29T15:25:39.985Z,99702.44
2022-09-29T15:28:17.322Z,99703.75
2022-09-29T15:30:45.394Z,99707.81
2022-09-29T15:33:22.120Z,99709.78
2022-09-29T15:38:49.596Z,99712.38
2022-09-29T15:41:27.573Z,99717.88
2022-09-29T15:44:00.430Z,99732.53
2022-09-29T15:46:37.048Z,99741.59
2022-09-29T15:49:06.389Z,99745.22
2022-09-29T15:51:35.940Z,99746.16
2022-09-29T15:54:10.690Z,99761.59
2022-09-29T15:56:57.174Z,99776.44
2022-09-29T15:59:43.513Z,99772.81
2022-09-29T16:02:38.895Z,99777.53
2022-09-29T16:05:12.347Z,99771.16
2022-09-29T16:08:10.491Z,99770.94
2022-09-29T16:10:48.492Z,99776.53
2022-09-29T16:13:31.242Z,99772.22
2022-09-29T16:16:07.136Z,99769.97
2022-09-29T16:18:44.487Z,99766.41
2022-09-29T16:21:21.343Z,99761.78
2022-09-29T16:24:07.054Z,99774.72
2022-09-29T16:26:34.017Z,99770.91
2022-09-29T16:29:01.201Z,99779.91
2022-09-29T16:31:31.207Z,99783.63
2022-09-29T16:34:01.604Z,99790.06
2022-09-29T16:36:41.276Z,99798.06
2022-09-29T16:39:20.069Z,99810.84
2022-09-29T16:41:54.298Z,99819.09
2022-09-29T16:45:00.349Z,99825.88
2022-09-29T16:50:29.470Z,99831.97
2022-09-29T16:52:56.497Z,99834.13
2022-09-29T16:55:28.142Z,99834.97
2022-09-29T16:58:02.016Z,99839.38
2022-09-29T17:06:16.531Z,99846.75
2022-09-29T17:09:28.349Z,99847.44
2022-09-29T17:11:59.991Z,99842.88
2022-09-29T17:14:29.581Z,99844.97
2022-09-29T17:16:57.805Z,99843.56
2022-09-29T17:19:26.465Z,99849.88
2022-09-29T17:21:57.128Z,99844.19
2022-09-29T17:24:25.423Z,99840.47
2022-09-29T17:27:11.505Z,99830.38
2022-09-29T17:29:44.733Z,99832.34
2022-09-29T17:32:16.080Z,99835.47
2022-09-29T17:34:43.104Z,99823.53
2022-09-29T17:37:12.092Z,99831.88
2022-09-29T17:39:39.581Z,99825.47
2022-09-29T17:42:10.577Z,99839.31
2022-09-29T17:44:40.886Z,99844.13
2022-09-29T17:47:28.316Z,99833.03
2022-09-29T17:49:56.472Z,99846.91
2022-09-29T17:52:24.164Z,99848.53
2022-09-29T17:54:51.172Z,99849.53
2022-09-29T17:57:31.026Z,99848.34
2022-09-29T18:00:01.836Z,99848.13
2022-09-29T18:02:35.617Z,99836.91
2022-09-29T18:05:22.513Z,99849.66
2022-09-29T18:07:55.928Z,99853.19
2022-09-29T18:10:29.361Z,99853.59
2022-09-29T18:13:00.476Z,99852.38
2022-09-29T18:18:15.815Z,99868.31
2022-09-29T18:20:45.681Z,99865.31
2022-09-29T18:23:15.444Z,99869.09
2022-09-29T18:25:48.054Z,99869.09
2022-09-29T18:28:17.851Z,99871.44
2022-09-29T18:30:49.022Z,99874.25
2022-09-29T18:33:20.233Z,99878.06
2022-09-29T18:35:53.747Z,99883.31
2022-09-29T18:38:22.290Z,99876.47
2022-09-29T18:40:54.547Z,99880.97
2022-09-29T18:43:29.459Z,99885.78
2022-09-29T18:46:00.079Z,99889.44
2022-09-29T18:48:29.755Z,99888.72
2022-09-29T18:50:58.226Z,99875.06
2022-09-29T18:53:25.411Z,99872.59
2022-09-29T18:55:58.192Z,99874.44
2022-09-29T18:58:25.356Z,99873.13
2022-09-29T19:00:56.126Z,99868.38
2022-09-29T19:03:25.319Z,99865.34
2022-09-29T19:05:53.436Z,99875.13
2022-09-29T19:08:22.863Z,99881.47
2022-09-29T19:10:59.179Z,99884.13
2022-09-29T19:13:26.823Z,99882.88
2022-09-29T19:15:58.661Z,99883.88
2022-09-29T19:18:31.182Z,99880.69
2022-09-29T19:21:14.783Z,99885.00
2022-09-29T19:23:46.787Z,99893.91
2022-09-29T19:26:18.352Z,99882.81
2022-09-29T19:28:46.796Z,99880.13
2022-09-29T19:31:19.988Z,99889.75
2022-09-29T19:33:48.474Z,99891.72
2022-09-29T19:36:20.870Z,99886.34
2022-09-29T19:38:48.381Z,99894.78
2022-09-29T19:41:24.063Z,99888.66
2022-09-29T19:44:00.111Z,99893.31
2022-09-29T19:46:27.769Z,99892.69
2022-09-29T19:48:55.324Z,99899.53
2022-09-29T19:51:47.346Z,99897.91
2022-09-29T19:54:22.378Z,99907.69
2022-09-29T19:57:00.475Z,99909.88
2022-09-29T19:59:35.888Z,99904.66
2022-09-29T20:02:12.604Z,99907.56
2022-09-29T20:04:48.598Z,99909.31
2022-09-29T20:07:17.108Z,99921.13
2022-09-29T20:10:02.746Z,99920.53
2022-09-29T20:12:30.571Z,99916.13
2022-09-29T20:14:59.821Z,99925.28
2022-09-29T20:17:27.553Z,99945.28
2022-09-29T20:19:54.837Z,99943.09
2022-09-29T20:22:26.057Z,99948.69
2022-09-29T20:24:56.151Z,99961.47
2022-09-29T20:27:23.426Z,99974.16
2022-09-29T20:29:50.578Z,99952.34
2022-09-29T20:32:19.109Z,99954.91
2022-09-29T20:34:47.060Z,99968.09
2022-09-29T20:37:14.763Z,99964.41
2022-09-29T20:39:42.449Z,99968.94
2022-09-29T20:42:10.290Z,99959.03
2022-09-29T20:47:29.304Z,99966.09
2022-09-29T20:49:56.563Z,99975.16
2022-09-29T20:52:24.508Z,99977.94
2022-09-29T20:54:51.755Z,99959.38
2022-09-29T20:57:19.414Z,99968.78
2022-09-29T20:59:52.266Z,99973.53
2022-09-29T21:02:19.615Z,99969.25
2022-09-29T21:04:46.633Z,99978.31
2022-09-29T21:07:36.754Z,99971.31
2022-09-29T21:10:07.169Z,99985.84
2022-09-29T21:12:34.300Z,99978.38
2022-09-29T21:15:02.435Z,99986.31
2022-09-29T21:17:30.263Z,99981.16
2022-09-29T21:19:57.604Z,99978.72
2022-09-29T21:22:27.702Z,99977.47
2022-09-29T21:24:55.332Z,99978.69
2022-09-29T21:27:23.646Z,99971.22
2022-09-29T21:29:53.170Z,99977.31
2022-09-29T21:32:20.765Z,99979.16
2022-09-29T21:34:47.766Z,99972.09
2022-09-29T21:37:16.870Z,99972.94
2022-09-29T21:39:45.012Z,99966.06
2022-09-29T21:42:12.000Z,99972.28
2022-09-29T21:44:38.975Z,99970.31
2022-09-29T21:47:06.647Z,99966.06
2022-09-29T21:49:33.611Z,99970.56
2022-09-29T21:52:02.152Z,99969.84
2022-09-29T21:54:30.444Z,99970.78
2022-09-29T21:56:57.618Z,99966.53
2022-09-29T21:59:24.658Z,99970.31
2022-09-29T22:01:52.843Z,99967.84
2022-09-29T22:04:20.745Z,99976.84
2022-09-29T22:06:48.002Z,99975.34
2022-09-29T22:09:19.136Z,99979.75
2022-09-29T22:11:48.660Z,99974.84
2022-09-29T22:14:16.902Z,99979.47
2022-09-29T22:16:44.807Z,99990.31
2022-09-29T22:19:28.178Z,99984.19
2022-09-29T22:21:55.933Z,100005.00
2022-09-29T22:24:24.545Z,99989.63
2022-09-29T22:26:51.890Z,100004.44
2022-09-29T22:29:20.039Z,100002.09
2022-09-29T22:31:47.497Z,100008.75
2022-09-29T22:34:14.579Z,100004.78
2022-09-29T22:36:41.857Z,99999.88
2022-09-29T22:39:10.642Z,99999.38
2022-09-29T22:41:39.950Z,100003.97
2022-09-29T22:44:07.958Z,100006.22
2022-09-29T22:46:35.400Z,100000.03
2022-09-29T22:49:03.083Z,100007.72
2022-09-29T22:51:30.470Z,100011.50
2022-09-29T22:53:57.440Z,100018.66
2022-09-29T22:56:30.908Z,100024.22
2022-09-29T22:59:03.942Z,100017.16
2022-09-29T23:01:31.040Z,100013.63
2022-09-29T23:04:19.777Z,100023.16
2022-09-29T23:06:47.849Z,100013.63
2022-09-29T23:09:15.015Z,100018.34
2022-09-29T23:11:42.188Z,100017.78
2022-09-29T23:14:09.578Z,100014.66
2022-09-29T23:16:36.567Z,100019.25
2022-09-29T23:19:04.469Z,100019.81
2022-09-29T23:21:33.681Z,100019.91
2022-09-29T23:24:01.699Z,100020.13
2022-09-29T23:26:30.679Z,100031.59
2022-09-29T23:29:00.465Z,100029.22
2022-09-29T23:31:28.105Z,100025.47
2022-09-29T23:34:01.024Z,100024.19
2022-09-29T23:36:30.461Z,100021.16
2022-09-29T23:39:19.446Z,100019.47
2022-09-29T23:41:50.410Z,100013.78
2022-09-29T23:44:19.181Z,100022.75
2022-09-29T23:46:47.387Z,100010.88
2022-09-29T23:49:18.068Z,100018.22
2022-09-29T23:51:47.627Z,100017.91
2022-09-29T23:54:18.200Z,100026.75
2022-09-29T23:56:46.577Z,100029.75
2022-09-29T23:59:14.120Z,100034.34
